createdAt,value
2023-02-05T00:00:24.576Z,1.50
2023-02-05T00:05:27.190Z,2.40
2023-02-05T00:10:29.948Z,2.60
2023-02-05T00:15:32.889Z,2.90
2023-02-05T00:20:36.407Z,2.50
2023-02-05T00:25:38.973Z,2.70
2023-02-05T00:30:42.045Z,2.10
2023-02-05T00:35:44.885Z,2.40
2023-02-05T00:40:47.415Z,2.20
2023-02-05T00:45:49.973Z,2.00
2023-02-05T00:50:53.440Z,2.40
2023-02-05T00:55:56.312Z,2.40
2023-02-05T01:00:58.876Z,2.40
2023-02-05T01:06:03.300Z,2.70
2023-02-05T01:11:11.458Z,3.20
2023-02-05T01:16:14.194Z,3.30
2023-02-05T01:21:16.912Z,3.30
2023-02-05T01:26:19.547Z,3.80
2023-02-05T01:31:22.503Z,3.70
2023-02-05T01:36:25.300Z,3.50
2023-02-05T01:41:27.790Z,3.10
2023-02-05T01:46:31.746Z,2.50
2023-02-05T01:51:37.503Z,2.50
2023-02-05T01:56:48.662Z,2.90
2023-02-05T02:01:52.028Z,2.10
2023-02-05T02:06:54.570Z,1.20
2023-02-05T02:11:58.659Z,0.60
2023-02-05T02:17:03.278Z,0.30
2023-02-05T02:22:43.286Z,0.70
2023-02-05T02:27:54.057Z,1.80
2023-02-05T02:33:21.636Z,1.10
2023-02-05T02:38:35.017Z,0.20
2023-02-05T02:44:04.958Z,-0.10
2023-02-05T02:49:14.664Z,0.80
2023-02-05T02:54:20.987Z,0.60
2023-02-05T02:59:30.778Z,0.90
2023-02-05T03:04:44.366Z,0.50
2023-02-05T03:10:28.996Z,0.50
2023-02-05T03:15:32.473Z,1.50
2023-02-05T03:21:04.030Z,1.20
2023-02-05T03:26:19.802Z,0.40
2023-02-05T03:31:36.153Z,0.20
2023-02-05T03:36:58.970Z,1.40
2023-02-05T03:42:17.548Z,1.20
2023-02-05T03:48:08.667Z,0.00
2023-02-05T03:53:37.223Z,0.70
2023-02-05T03:58:46.373Z,1.30
2023-02-05T04:03:51.357Z,1.00
2023-02-05T04:08:54.561Z,2.00
2023-02-05T04:13:59.378Z,1.80
2023-02-05T04:19:02.275Z,2.50
2023-02-05T04:24:06.231Z,2.70
2023-02-05T04:29:09.173Z,2.30
2023-02-05T04:34:17.927Z,1.40
2023-02-05T04:39:20.610Z,0.10
2023-02-05T04:44:23.913Z,-0.30
2023-02-05T04:49:26.534Z,-0.20
2023-02-05T04:54:29.267Z,-0.30
2023-02-05T04:59:31.911Z,0.20
2023-02-05T05:04:34.518Z,0.40
2023-02-05T05:09:37.730Z,0.20
2023-02-05T05:14:40.367Z,0.10
2023-02-05T05:19:42.838Z,0.60
2023-02-05T05:24:45.381Z,-0.50
2023-02-05T05:29:47.891Z,-0.90
2023-02-05T05:34:50.692Z,-2.40
2023-02-05T05:40:12.027Z,-0.90
2023-02-05T05:45:14.615Z,0.00
2023-02-05T05:50:17.493Z,1.70
2023-02-05T05:55:19.934Z,2.40
2023-02-05T06:00:22.686Z,1.80
2023-02-05T06:05:25.241Z,1.30
2023-02-05T06:10:28.169Z,1.80
2023-02-05T06:15:30.724Z,2.10
2023-02-05T06:20:34.304Z,2.40
2023-02-05T06:25:37.154Z,2.80
2023-02-05T06:30:39.802Z,2.40
2023-02-05T06:35:42.867Z,1.30
2023-02-05T06:40:46.829Z,1.00
2023-02-05T06:45:49.628Z,0.30
2023-02-05T06:50:52.334Z,0.10
2023-02-05T06:55:58.904Z,0.80
2023-02-05T07:01:02.688Z,1.80
2023-02-05T07:06:06.337Z,1.60
2023-02-05T07:11:08.982Z,1.20
2023-02-05T07:16:11.723Z,1.90
2023-02-05T07:21:17.777Z,2.00
2023-02-05T07:26:20.532Z,3.10
2023-02-05T07:31:23.142Z,4.40
2023-02-05T07:36:25.691Z,3.70
2023-02-05T07:41:28.129Z,5.00
2023-02-05T07:46:30.846Z,4.60
2023-02-05T07:51:35.361Z,4.60
2023-02-05T07:56:38.048Z,4.20
2023-02-05T08:01:40.524Z,4.00
2023-02-05T08:06:43.262Z,5.30
2023-02-05T08:11:45.794Z,4.70
2023-02-05T08:16:48.387Z,3.60
2023-02-05T08:21:51.551Z,4.20
2023-02-05T08:26:54.097Z,4.30
2023-02-05T08:31:56.730Z,4.30
2023-02-05T08:36:59.973Z,5.30
2023-02-05T08:42:02.690Z,5.30
2023-02-05T08:47:05.251Z,4.50
2023-02-05T08:52:07.675Z,5.80
2023-02-05T08:57:10.425Z,6.30
2023-02-05T09:02:15.453Z,5.70
2023-02-05T09:07:18.421Z,5.60
2023-02-05T09:12:20.975Z,6.00
2023-02-05T09:17:23.561Z,6.00
2023-02-05T09:22:26.229Z,5.70
2023-02-05T09:27:28.756Z,5.90
2023-02-05T09:32:31.266Z,6.30
2023-02-05T09:37:33.765Z,6.50
2023-02-05T09:42:45.381Z,7.20
2023-02-05T09:48:07.737Z,6.90
2023-02-05T09:53:16.833Z,6.90
2023-02-05T09:58:27.614Z,7.30
2023-02-05T10:03:51.695Z,7.20
2023-02-05T10:09:13.446Z,7.40
2023-02-05T10:14:32.169Z,7.20
2023-02-05T10:19:40.547Z,8.00
2023-02-05T10:25:13.020Z,8.10
2023-02-05T10:30:56.998Z,8.50
2023-02-05T10:36:04.023Z,9.50
2023-02-05T10:41:40.267Z,9.60
2023-02-05T10:46:51.714Z,9.10
2023-02-05T10:51:55.145Z,9.00
2023-02-05T10:56:58.569Z,9.00
2023-02-05T11:02:08.338Z,9.10
2023-02-05T11:07:38.865Z,8.70
2023-02-05T11:12:45.040Z,8.20
2023-02-05T11:17:57.416Z,8.60
2023-02-05T11:23:07.170Z,8.20
2023-02-05T11:28:24.629Z,8.00
2023-02-05T11:33:29.751Z,8.00
2023-02-05T11:39:06.702Z,8.60
2023-02-05T11:44:21.771Z,8.40
2023-02-05T11:49:37.803Z,8.20
2023-02-05T11:54:46.203Z,9.10
2023-02-05T12:00:09.884Z,9.10
2023-02-05T12:05:12.318Z,9.00
2023-02-05T12:10:17.585Z,8.40
2023-02-05T12:15:26.835Z,8.50
2023-02-05T12:20:35.171Z,8.10
2023-02-05T12:25:58.958Z,7.90
2023-02-05T12:31:16.476Z,8.30
2023-02-05T12:36:36.980Z,7.30
2023-02-05T12:41:51.444Z,8.20
2023-02-05T12:47:24.793Z,7.80
2023-02-05T12:52:38.776Z,6.80
2023-02-05T12:58:03.909Z,7.70
2023-02-05T13:03:30.731Z,7.40
2023-02-05T13:08:48.367Z,7.00
2023-02-05T13:13:53.743Z,6.00
2023-02-05T13:19:08.413Z,6.10
2023-02-05T13:24:44.673Z,5.80
2023-02-05T13:29:51.768Z,5.80
2023-02-05T13:34:56.724Z,6.30
2023-02-05T13:40:15.755Z,6.20
2023-02-05T13:45:35.957Z,6.10
2023-02-05T13:51:02.901Z,6.10
2023-02-05T13:56:14.747Z,5.90
2023-02-05T14:01:49.044Z,5.60
2023-02-05T14:07:13.491Z,5.70
2023-02-05T14:12:24.232Z,5.50
2023-02-05T14:17:32.418Z,5.40
2023-02-05T14:22:45.256Z,5.30
2023-02-05T14:27:49.488Z,5.40
2023-02-05T14:32:52.157Z,5.90
2023-02-05T14:38:02.670Z,6.90
2023-02-05T14:43:36.159Z,7.20
2023-02-05T14:48:43.234Z,7.30
2023-02-05T14:53:58.151Z,6.20
2023-02-05T14:59:18.754Z,5.30
2023-02-05T15:04:33.388Z,5.40
2023-02-05T15:10:04.141Z,4.60
2023-02-05T15:20:36.105Z,3.50
2023-02-05T15:25:44.123Z,3.10
2023-02-05T15:31:10.262Z,3.20
2023-02-05T15:36:21.364Z,3.10
2023-02-05T15:41:25.435Z,2.70
2023-02-05T15:46:31.145Z,2.50
2023-02-05T15:56:42.302Z,1.80
2023-02-05T16:01:50.069Z,2.10
2023-02-05T16:06:52.715Z,1.50
2023-02-05T16:11:55.855Z,1.20
2023-02-05T16:17:16.512Z,1.60
2023-02-05T16:22:52.774Z,0.90
2023-02-05T16:27:57.782Z,1.50
2023-02-05T16:33:04.343Z,1.10
2023-02-05T16:38:18.593Z,1.00
2023-02-05T16:43:27.113Z,1.40
2023-02-05T16:53:37.145Z,0.70
2023-02-05T16:58:51.596Z,1.00
2023-02-05T17:03:55.576Z,0.80
2023-02-05T17:08:58.112Z,1.20
2023-02-05T17:24:49.751Z,-1.60
2023-02-05T17:29:52.579Z,-1.70
2023-02-05T17:34:55.372Z,-2.70
2023-02-05T17:45:00.737Z,-3.20
2023-02-05T17:50:03.460Z,-3.40
2023-02-05T17:55:06.846Z,-3.60
2023-02-05T18:00:19.133Z,-3.70
2023-02-05T18:05:22.477Z,-3.70
2023-02-05T18:10:28.300Z,-3.80
2023-02-05T18:15:32.599Z,-2.70
2023-02-05T18:20:35.919Z,-1.70
2023-02-05T18:25:39.665Z,-1.00
2023-02-05T18:30:42.934Z,-1.00
2023-02-05T18:35:45.499Z,-1.10
2023-02-05T18:40:47.999Z,-1.30
2023-02-05T18:45:50.726Z,-1.10
2023-02-05T18:50:53.239Z,-1.00
2023-02-05T18:56:07.827Z,-0.90
2023-02-05T19:01:14.808Z,-1.80
2023-02-05T19:06:19.355Z,-0.90
2023-02-05T19:11:24.300Z,-0.10
2023-02-05T19:16:27.720Z,0.20
2023-02-05T19:21:31.861Z,-0.50
2023-02-05T19:26:36.938Z,-0.60
2023-02-05T19:31:39.486Z,-0.60
2023-02-05T19:36:42.688Z,-0.60
2023-02-05T19:41:45.846Z,-0.30
2023-02-05T19:46:48.950Z,-0.60
2023-02-05T19:51:55.247Z,-0.70
2023-02-05T19:56:57.987Z,-0.70
2023-02-05T20:02:00.586Z,-0.20
2023-02-05T20:07:04.303Z,-0.30
2023-02-05T20:12:07.088Z,-0.60
2023-02-05T20:17:12.069Z,-1.10
2023-02-05T20:22:14.751Z,-0.80
2023-02-05T20:27:17.363Z,-2.30
2023-02-05T20:32:19.920Z,-2.50
2023-02-05T20:37:23.177Z,-1.70
2023-02-05T20:42:25.717Z,-1.10
2023-02-05T20:47:28.316Z,-0.90
2023-02-05T20:52:30.803Z,-1.10
2023-02-05T20:57:33.258Z,-1.00
2023-02-05T21:02:36.979Z,-1.10
2023-02-05T21:07:39.507Z,-1.00
2023-02-05T21:12:41.988Z,-1.00
2023-02-05T21:17:44.609Z,-1.10
2023-02-05T21:22:47.339Z,-1.10
2023-02-05T21:27:50.930Z,0.30
2023-02-05T21:32:53.830Z,-0.30
2023-02-05T21:37:56.494Z,-0.70
2023-02-05T21:43:00.525Z,-0.80
2023-02-05T21:48:03.191Z,-1.10
2023-02-05T21:53:06.193Z,-1.10
2023-02-05T21:58:08.758Z,-1.10
2023-02-05T22:03:11.330Z,-1.10
2023-02-05T22:08:13.926Z,-1.10
2023-02-05T22:13:16.615Z,-0.60
2023-02-05T22:18:19.326Z,0.30
2023-02-05T22:23:21.896Z,0.90
2023-02-05T22:28:24.542Z,1.10
2023-02-05T22:33:28.731Z,0.30
2023-02-05T22:38:32.866Z,-0.40
2023-02-05T22:43:35.635Z,-0.60
2023-02-05T22:48:40.280Z,-0.20
2023-02-05T22:53:43.082Z,-0.50
2023-02-05T22:58:47.675Z,-0.60
2023-02-05T23:03:52.121Z,-0.50
2023-02-05T23:08:59.336Z,-0.40
2023-02-05T23:14:03.769Z,-0.40
2023-02-05T23:19:09.866Z,-0.30
2023-02-05T23:24:13.278Z,-0.40
2023-02-05T23:29:17.362Z,0.60
2023-02-05T23:34:20.001Z,0.40
2023-02-05T23:39:22.642Z,0.20
2023-02-05T23:44:25.428Z,0.20
2023-02-05T23:49:27.957Z,-0.20
2023-02-05T23:54:30.388Z,-0.20
2023-02-05T23:59:32.886Z,-0.80
